sensor_id;sensor_type;location;lat;lon;timestamp;P1;durP1;ratioP1;P2;durP2;ratioP2
66478;SDS011;53294;47.912;13.526;2022-12-07T00:00:14;14.45;;;9.75;;
66478;SDS011;53294;47.912;13.526;2022-12-07T00:02:41;12.80;;;8.63;;
66478;SDS011;53294;47.912;13.526;2022-12-07T00:05:08;13.45;;;9.35;;
66478;SDS011;53294;47.912;13.526;2022-12-07T00:07:34;14.85;;;10.63;;
66478;SDS011;53294;47.912;13.526;2022-12-07T00:10:01;15.80;;;10.57;;
66478;SDS011;53294;47.912;13.526;2022-12-07T00:12:28;14.18;;;9.43;;
66478;SDS011;53294;47.912;13.526;2022-12-07T00:14:54;16.23;;;10.73;;
66478;SDS011;53294;47.912;13.526;2022-12-07T00:17:21;16.60;;;11.45;;
66478;SDS011;53294;47.912;13.526;2022-12-07T00:19:48;17.27;;;10.75;;
66478;SDS011;53294;47.912;13.526;2022-12-07T00:22:14;17.55;;;10.75;;
66478;SDS011;53294;47.912;13.526;2022-12-07T00:24:41;15.90;;;9.77;;
66478;SDS011;53294;47.912;13.526;2022-12-07T00:27:08;13.82;;;9.35;;
66478;SDS011;53294;47.912;13.526;2022-12-07T00:29:34;17.95;;;9.68;;
66478;SDS011;53294;47.912;13.526;2022-12-07T00:32:03;16.45;;;10.93;;
66478;SDS011;53294;47.912;13.526;2022-12-07T00:34:30;18.05;;;10.23;;
66478;SDS011;53294;47.912;13.526;2022-12-07T00:36:56;16.90;;;10.50;;
66478;SDS011;53294;47.912;13.526;2022-12-07T00:39:23;16.70;;;10.90;;
66478;SDS011;53294;47.912;13.526;2022-12-07T00:41:50;16.05;;;10.70;;
66478;SDS011;53294;47.912;13.526;2022-12-07T00:44:16;16.05;;;10.23;;
66478;SDS011;53294;47.912;13.526;2022-12-07T00:46:43;16.40;;;9.75;;
66478;SDS011;53294;47.912;13.526;2022-12-07T00:49:11;17.65;;;10.75;;
66478;SDS011;53294;47.912;13.526;2022-12-07T00:51:38;16.20;;;10.15;;
66478;SDS011;53294;47.912;13.526;2022-12-07T00:54:04;18.10;;;10.95;;
66478;SDS011;53294;47.912;13.526;2022-12-07T00:56:31;21.38;;;12.10;;
66478;SDS011;53294;47.912;13.526;2022-12-07T00:58:59;23.20;;;13.27;;
66478;SDS011;53294;47.912;13.526;2022-12-07T01:01:28;20.95;;;11.52;;
66478;SDS011;53294;47.912;13.526;2022-12-07T01:03:58;22.83;;;12.20;;
66478;SDS011;53294;47.912;13.526;2022-12-07T01:06:27;21.02;;;11.40;;
66478;SDS011;53294;47.912;13.526;2022-12-07T01:08:54;23.33;;;12.60;;
66478;SDS011;53294;47.912;13.526;2022-12-07T01:11:22;26.52;;;12.95;;
66478;SDS011;53294;47.912;13.526;2022-12-07T01:13:51;21.95;;;12.07;;
66478;SDS011;53294;47.912;13.526;2022-12-07T01:16:19;19.83;;;11.35;;
66478;SDS011;53294;47.912;13.526;2022-12-07T01:18:48;20.42;;;11.20;;
66478;SDS011;53294;47.912;13.526;2022-12-07T01:21:18;23.17;;;12.20;;
66478;SDS011;53294;47.912;13.526;2022-12-07T01:23:49;20.27;;;11.48;;
66478;SDS011;53294;47.912;13.526;2022-12-07T01:26:17;19.90;;;10.57;;
66478;SDS011;53294;47.912;13.526;2022-12-07T01:28:46;21.48;;;11.15;;
66478;SDS011;53294;47.912;13.526;2022-12-07T01:31:14;19.63;;;11.48;;
66478;SDS011;53294;47.912;13.526;2022-12-07T01:33:52;20.05;;;11.63;;
66478;SDS011;53294;47.912;13.526;2022-12-07T01:36:22;20.42;;;10.50;;
66478;SDS011;53294;47.912;13.526;2022-12-07T01:38:57;21.20;;;11.98;;
66478;SDS011;53294;47.912;13.526;2022-12-07T01:41:28;19.08;;;11.50;;
66478;SDS011;53294;47.912;13.526;2022-12-07T01:46:37;19.15;;;10.15;;
66478;SDS011;53294;47.912;13.526;2022-12-07T01:49:05;22.33;;;11.60;;
66478;SDS011;53294;47.912;13.526;2022-12-07T01:51:34;19.98;;;11.02;;
66478;SDS011;53294;47.912;13.526;2022-12-07T01:54:03;19.80;;;10.25;;
66478;SDS011;53294;47.912;13.526;2022-12-07T01:56:30;18.77;;;10.35;;
66478;SDS011;53294;47.912;13.526;2022-12-07T01:58:58;19.70;;;11.27;;
66478;SDS011;53294;47.912;13.526;2022-12-07T02:01:27;18.23;;;10.55;;
66478;SDS011;53294;47.912;13.526;2022-12-07T02:03:54;19.80;;;10.77;;
66478;SDS011;53294;47.912;13.526;2022-12-07T02:06:22;17.83;;;10.30;;
66478;SDS011;53294;47.912;13.526;2022-12-07T02:08:51;17.80;;;10.55;;
66478;SDS011;53294;47.912;13.526;2022-12-07T02:11:18;18.00;;;10.35;;
66478;SDS011;53294;47.912;13.526;2022-12-07T02:13:45;19.15;;;10.48;;
66478;SDS011;53294;47.912;13.526;2022-12-07T02:18:57;18.65;;;10.30;;
66478;SDS011;53294;47.912;13.526;2022-12-07T02:27:07;21.00;;;11.52;;
66478;SDS011;53294;47.912;13.526;2022-12-07T02:30:02;18.67;;;9.98;;
66478;SDS011;53294;47.912;13.526;2022-12-07T02:32:40;18.98;;;11.25;;
66478;SDS011;53294;47.912;13.526;2022-12-07T02:35:12;21.80;;;11.82;;
66478;SDS011;53294;47.912;13.526;2022-12-07T02:43:17;19.30;;;10.77;;
66478;SDS011;53294;47.912;13.526;2022-12-07T02:45:50;19.52;;;10.57;;
66478;SDS011;53294;47.912;13.526;2022-12-07T02:48:19;20.98;;;11.85;;
66478;SDS011;53294;47.912;13.526;2022-12-07T02:50:50;20.30;;;11.00;;
66478;SDS011;53294;47.912;13.526;2022-12-07T03:07:18;17.77;;;9.52;;
66478;SDS011;53294;47.912;13.526;2022-12-07T03:15:32;17.40;;;9.98;;
66478;SDS011;53294;47.912;13.526;2022-12-07T03:17:59;16.17;;;9.43;;
66478;SDS011;53294;47.912;13.526;2022-12-07T03:20:29;17.63;;;10.25;;
66478;SDS011;53294;47.912;13.526;2022-12-07T03:22:58;18.85;;;10.10;;
66478;SDS011;53294;47.912;13.526;2022-12-07T03:25:25;15.75;;;9.35;;
66478;SDS011;53294;47.912;13.526;2022-12-07T03:27:54;16.90;;;9.40;;
66478;SDS011;53294;47.912;13.526;2022-12-07T03:30:30;18.70;;;10.15;;
66478;SDS011;53294;47.912;13.526;2022-12-07T03:33:04;18.30;;;9.18;;
66478;SDS011;53294;47.912;13.526;2022-12-07T03:35:36;15.25;;;9.80;;
66478;SDS011;53294;47.912;13.526;2022-12-07T03:38:15;18.95;;;9.77;;
66478;SDS011;53294;47.912;13.526;2022-12-07T03:43:18;20.67;;;10.75;;
66478;SDS011;53294;47.912;13.526;2022-12-07T03:45:59;14.35;;;8.77;;
66478;SDS011;53294;47.912;13.526;2022-12-07T03:48:35;19.90;;;10.48;;
66478;SDS011;53294;47.912;13.526;2022-12-07T03:53:34;16.63;;;9.48;;
66478;SDS011;53294;47.912;13.526;2022-12-07T03:56:07;18.67;;;9.27;;
66478;SDS011;53294;47.912;13.526;2022-12-07T03:58:35;16.45;;;9.05;;
66478;SDS011;53294;47.912;13.526;2022-12-07T04:01:03;17.55;;;9.55;;
66478;SDS011;53294;47.912;13.526;2022-12-07T04:03:29;13.75;;;8.43;;
66478;SDS011;53294;47.912;13.526;2022-12-07T04:05:56;14.27;;;8.65;;
66478;SDS011;53294;47.912;13.526;2022-12-07T04:08:24;15.95;;;9.70;;
66478;SDS011;53294;47.912;13.526;2022-12-07T04:10:51;17.20;;;9.43;;
66478;SDS011;53294;47.912;13.526;2022-12-07T04:13:18;13.82;;;8.70;;
66478;SDS011;53294;47.912;13.526;2022-12-07T04:15:44;14.60;;;8.82;;
66478;SDS011;53294;47.912;13.526;2022-12-07T04:18:11;11.20;;;7.15;;
66478;SDS011;53294;47.912;13.526;2022-12-07T04:20:37;13.05;;;8.45;;
66478;SDS011;53294;47.912;13.526;2022-12-07T04:23:04;12.95;;;7.97;;
66478;SDS011;53294;47.912;13.526;2022-12-07T04:25:31;13.05;;;8.20;;
66478;SDS011;53294;47.912;13.526;2022-12-07T04:27:57;15.32;;;8.63;;
66478;SDS011;53294;47.912;13.526;2022-12-07T04:30:24;12.27;;;8.15;;
66478;SDS011;53294;47.912;13.526;2022-12-07T04:32:50;12.88;;;7.78;;
66478;SDS011;53294;47.912;13.526;2022-12-07T04:35:17;12.93;;;7.60;;
66478;SDS011;53294;47.912;13.526;2022-12-07T04:37:44;15.23;;;8.85;;
66478;SDS011;53294;47.912;13.526;2022-12-07T04:40:10;13.98;;;8.10;;
66478;SDS011;53294;47.912;13.526;2022-12-07T04:42:38;12.57;;;8.20;;
66478;SDS011;53294;47.912;13.526;2022-12-07T04:45:05;13.95;;;8.85;;
66478;SDS011;53294;47.912;13.526;2022-12-07T04:47:32;13.18;;;8.10;;
66478;SDS011;53294;47.912;13.526;2022-12-07T04:49:59;12.82;;;8.05;;
66478;SDS011;53294;47.912;13.526;2022-12-07T04:52:26;13.30;;;8.90;;
66478;SDS011;53294;47.912;13.526;2022-12-07T04:54:53;14.10;;;8.82;;
66478;SDS011;53294;47.912;13.526;2022-12-07T04:57:19;14.15;;;9.63;;
66478;SDS011;53294;47.912;13.526;2022-12-07T04:59:46;14.73;;;8.95;;
66478;SDS011;53294;47.912;13.526;2022-12-07T05:02:13;13.10;;;7.85;;
66478;SDS011;53294;47.912;13.526;2022-12-07T05:04:39;14.50;;;9.50;;
66478;SDS011;53294;47.912;13.526;2022-12-07T05:07:06;14.30;;;9.15;;
66478;SDS011;53294;47.912;13.526;2022-12-07T05:09:32;14.00;;;9.40;;
66478;SDS011;53294;47.912;13.526;2022-12-07T05:11:59;13.57;;;9.50;;
66478;SDS011;53294;47.912;13.526;2022-12-07T05:14:26;17.30;;;10.27;;
66478;SDS011;53294;47.912;13.526;2022-12-07T05:16:52;14.05;;;9.02;;
66478;SDS011;53294;47.912;13.526;2022-12-07T05:19:20;13.77;;;8.40;;
66478;SDS011;53294;47.912;13.526;2022-12-07T05:21:47;16.10;;;10.68;;
66478;SDS011;53294;47.912;13.526;2022-12-07T05:24:14;14.60;;;9.60;;
66478;SDS011;53294;47.912;13.526;2022-12-07T05:26:42;14.60;;;8.68;;
66478;SDS011;53294;47.912;13.526;2022-12-07T05:29:13;17.60;;;10.73;;
66478;SDS011;53294;47.912;13.526;2022-12-07T05:31:41;12.23;;;8.63;;
66478;SDS011;53294;47.912;13.526;2022-12-07T05:34:09;14.70;;;9.23;;
66478;SDS011;53294;47.912;13.526;2022-12-07T05:36:36;14.00;;;8.55;;
66478;SDS011;53294;47.912;13.526;2022-12-07T05:39:03;13.18;;;9.05;;
66478;SDS011;53294;47.912;13.526;2022-12-07T05:41:29;14.55;;;9.57;;
66478;SDS011;53294;47.912;13.526;2022-12-07T05:44:14;15.23;;;10.02;;
66478;SDS011;53294;47.912;13.526;2022-12-07T05:46:41;14.40;;;9.45;;
66478;SDS011;53294;47.912;13.526;2022-12-07T05:49:08;14.63;;;8.88;;
66478;SDS011;53294;47.912;13.526;2022-12-07T05:51:34;16.77;;;9.45;;
66478;SDS011;53294;47.912;13.526;2022-12-07T05:54:01;15.10;;;8.68;;
66478;SDS011;53294;47.912;13.526;2022-12-07T05:56:28;14.32;;;9.55;;
66478;SDS011;53294;47.912;13.526;2022-12-07T05:58:54;15.80;;;9.63;;
66478;SDS011;53294;47.912;13.526;2022-12-07T06:01:39;15.27;;;9.45;;
66478;SDS011;53294;47.912;13.526;2022-12-07T06:04:06;15.40;;;9.13;;
66478;SDS011;53294;47.912;13.526;2022-12-07T06:06:33;14.52;;;9.65;;
66478;SDS011;53294;47.912;13.526;2022-12-07T06:09:00;14.63;;;9.25;;
66478;SDS011;53294;47.912;13.526;2022-12-07T06:11:27;14.85;;;9.50;;
66478;SDS011;53294;47.912;13.526;2022-12-07T06:14:13;13.52;;;8.70;;
66478;SDS011;53294;47.912;13.526;2022-12-07T06:16:40;14.15;;;8.75;;
66478;SDS011;53294;47.912;13.526;2022-12-07T06:19:07;14.57;;;9.20;;
66478;SDS011;53294;47.912;13.526;2022-12-07T06:21:33;13.85;;;8.98;;
66478;SDS011;53294;47.912;13.526;2022-12-07T06:24:00;12.48;;;8.15;;
66478;SDS011;53294;47.912;13.526;2022-12-07T06:26:28;13.98;;;9.27;;
66478;SDS011;53294;47.912;13.526;2022-12-07T06:28:54;11.88;;;8.38;;
66478;SDS011;53294;47.912;13.526;2022-12-07T06:31:21;14.23;;;9.15;;
66478;SDS011;53294;47.912;13.526;2022-12-07T06:33:47;13.80;;;8.93;;
66478;SDS011;53294;47.912;13.526;2022-12-07T06:36:14;14.27;;;9.00;;
66478;SDS011;53294;47.912;13.526;2022-12-07T06:38:41;11.90;;;8.40;;
66478;SDS011;53294;47.912;13.526;2022-12-07T06:41:07;12.95;;;8.50;;
66478;SDS011;53294;47.912;13.526;2022-12-07T06:43:34;13.20;;;8.90;;
66478;SDS011;53294;47.912;13.526;2022-12-07T06:46:01;14.25;;;9.30;;
66478;SDS011;53294;47.912;13.526;2022-12-07T06:48:27;15.18;;;8.80;;
66478;SDS011;53294;47.912;13.526;2022-12-07T06:50:54;14.70;;;8.98;;
66478;SDS011;53294;47.912;13.526;2022-12-07T06:53:21;16.08;;;9.40;;
66478;SDS011;53294;47.912;13.526;2022-12-07T06:55:48;13.38;;;8.75;;
66478;SDS011;53294;47.912;13.526;2022-12-07T06:58:15;14.18;;;8.60;;
66478;SDS011;53294;47.912;13.526;2022-12-07T07:00:42;12.00;;;8.68;;
66478;SDS011;53294;47.912;13.526;2022-12-07T07:03:10;13.75;;;9.73;;
66478;SDS011;53294;47.912;13.526;2022-12-07T07:05:36;16.52;;;10.35;;
66478;SDS011;53294;47.912;13.526;2022-12-07T07:08:03;15.98;;;9.80;;
66478;SDS011;53294;47.912;13.526;2022-12-07T07:10:47;17.42;;;10.23;;
66478;SDS011;53294;47.912;13.526;2022-12-07T07:13:14;18.10;;;10.02;;
66478;SDS011;53294;47.912;13.526;2022-12-07T07:15:41;13.43;;;8.45;;
66478;SDS011;53294;47.912;13.526;2022-12-07T07:18:08;13.43;;;8.23;;
66478;SDS011;53294;47.912;13.526;2022-12-07T07:20:34;11.85;;;7.57;;
66478;SDS011;53294;47.912;13.526;2022-12-07T07:23:01;13.23;;;7.88;;
66478;SDS011;53294;47.912;13.526;2022-12-07T07:25:28;13.20;;;8.43;;
66478;SDS011;53294;47.912;13.526;2022-12-07T07:27:55;12.73;;;8.52;;
66478;SDS011;53294;47.912;13.526;2022-12-07T07:30:21;11.98;;;8.02;;
66478;SDS011;53294;47.912;13.526;2022-12-07T07:32:48;13.13;;;8.45;;
66478;SDS011;53294;47.912;13.526;2022-12-07T07:35:15;11.27;;;7.32;;
66478;SDS011;53294;47.912;13.526;2022-12-07T07:37:42;13.18;;;8.10;;
66478;SDS011;53294;47.912;13.526;2022-12-07T07:40:09;12.25;;;7.82;;
66478;SDS011;53294;47.912;13.526;2022-12-07T07:42:36;12.25;;;7.28;;
66478;SDS011;53294;47.912;13.526;2022-12-07T07:45:03;12.52;;;6.57;;
66478;SDS011;53294;47.912;13.526;2022-12-07T07:47:30;10.88;;;6.93;;
66478;SDS011;53294;47.912;13.526;2022-12-07T07:49:57;12.85;;;8.07;;
66478;SDS011;53294;47.912;13.526;2022-12-07T07:52:23;12.88;;;8.15;;
66478;SDS011;53294;47.912;13.526;2022-12-07T07:54:50;12.32;;;7.13;;
66478;SDS011;53294;47.912;13.526;2022-12-07T07:57:17;11.95;;;7.93;;
66478;SDS011;53294;47.912;13.526;2022-12-07T07:59:44;11.20;;;7.85;;
66478;SDS011;53294;47.912;13.526;2022-12-07T08:02:14;11.93;;;7.88;;
66478;SDS011;53294;47.912;13.526;2022-12-07T08:04:44;12.75;;;7.32;;
66478;SDS011;53294;47.912;13.526;2022-12-07T08:07:11;11.00;;;7.35;;
66478;SDS011;53294;47.912;13.526;2022-12-07T08:09:39;12.15;;;7.05;;
66478;SDS011;53294;47.912;13.526;2022-12-07T08:12:05;11.65;;;6.65;;
66478;SDS011;53294;47.912;13.526;2022-12-07T08:14:32;11.60;;;7.22;;
66478;SDS011;53294;47.912;13.526;2022-12-07T08:17:00;12.05;;;7.10;;
66478;SDS011;53294;47.912;13.526;2022-12-07T08:19:27;9.27;;;5.93;;
66478;SDS011;53294;47.912;13.526;2022-12-07T08:21:53;11.23;;;6.75;;
66478;SDS011;53294;47.912;13.526;2022-12-07T08:24:22;11.15;;;7.10;;
66478;SDS011;53294;47.912;13.526;2022-12-07T08:26:49;11.50;;;7.10;;
66478;SDS011;53294;47.912;13.526;2022-12-07T08:29:16;11.63;;;6.22;;
66478;SDS011;53294;47.912;13.526;2022-12-07T08:31:44;10.02;;;6.68;;
66478;SDS011;53294;47.912;13.526;2022-12-07T08:34:11;11.02;;;6.63;;
66478;SDS011;53294;47.912;13.526;2022-12-07T08:36:38;12.55;;;6.60;;
66478;SDS011;53294;47.912;13.526;2022-12-07T08:39:05;10.13;;;6.50;;
66478;SDS011;53294;47.912;13.526;2022-12-07T08:41:52;12.27;;;7.55;;
66478;SDS011;53294;47.912;13.526;2022-12-07T08:44:18;11.82;;;7.45;;
66478;SDS011;53294;47.912;13.526;2022-12-07T08:46:46;11.07;;;7.25;;
66478;SDS011;53294;47.912;13.526;2022-12-07T08:49:20;12.23;;;7.93;;
66478;SDS011;53294;47.912;13.526;2022-12-07T08:51:53;10.80;;;6.55;;
66478;SDS011;53294;47.912;13.526;2022-12-07T08:54:21;11.93;;;7.07;;
66478;SDS011;53294;47.912;13.526;2022-12-07T08:56:48;11.13;;;6.65;;
66478;SDS011;53294;47.912;13.526;2022-12-07T08:59:24;10.80;;;6.47;;
66478;SDS011;53294;47.912;13.526;2022-12-07T09:01:52;11.85;;;7.32;;
66478;SDS011;53294;47.912;13.526;2022-12-07T09:04:19;17.90;;;9.10;;
66478;SDS011;53294;47.912;13.526;2022-12-07T09:06:46;10.25;;;6.22;;
66478;SDS011;53294;47.912;13.526;2022-12-07T09:09:14;9.38;;;5.82;;
66478;SDS011;53294;47.912;13.526;2022-12-07T09:11:41;8.73;;;5.57;;
66478;SDS011;53294;47.912;13.526;2022-12-07T09:14:07;10.68;;;6.53;;
66478;SDS011;53294;47.912;13.526;2022-12-07T09:16:34;10.93;;;7.43;;
66478;SDS011;53294;47.912;13.526;2022-12-07T09:19:01;10.55;;;6.47;;
66478;SDS011;53294;47.912;13.526;2022-12-07T09:21:27;13.20;;;7.65;;
66478;SDS011;53294;47.912;13.526;2022-12-07T09:23:54;10.70;;;6.53;;
66478;SDS011;53294;47.912;13.526;2022-12-07T09:26:21;10.20;;;6.68;;
66478;SDS011;53294;47.912;13.526;2022-12-07T09:28:48;9.68;;;6.18;;
66478;SDS011;53294;47.912;13.526;2022-12-07T09:31:14;8.63;;;5.47;;
66478;SDS011;53294;47.912;13.526;2022-12-07T09:34:09;11.70;;;6.57;;
66478;SDS011;53294;47.912;13.526;2022-12-07T09:36:35;9.35;;;5.93;;
66478;SDS011;53294;47.912;13.526;2022-12-07T09:39:02;9.73;;;5.78;;
66478;SDS011;53294;47.912;13.526;2022-12-07T09:41:31;9.70;;;5.93;;
66478;SDS011;53294;47.912;13.526;2022-12-07T09:44:03;9.77;;;5.70;;
66478;SDS011;53294;47.912;13.526;2022-12-07T09:46:36;9.40;;;5.38;;
66478;SDS011;53294;47.912;13.526;2022-12-07T09:49:09;6.93;;;4.30;;
66478;SDS011;53294;47.912;13.526;2022-12-07T09:51:43;7.85;;;4.35;;
66478;SDS011;53294;47.912;13.526;2022-12-07T09:54:12;8.40;;;4.65;;
66478;SDS011;53294;47.912;13.526;2022-12-07T09:56:41;6.95;;;4.35;;
66478;SDS011;53294;47.912;13.526;2022-12-07T09:59:16;9.02;;;5.30;;
66478;SDS011;53294;47.912;13.526;2022-12-07T10:01:45;9.65;;;5.70;;
66478;SDS011;53294;47.912;13.526;2022-12-07T10:04:24;8.77;;;5.60;;
66478;SDS011;53294;47.912;13.526;2022-12-07T10:06:52;7.70;;;4.43;;
66478;SDS011;53294;47.912;13.526;2022-12-07T10:09:20;8.43;;;4.97;;
66478;SDS011;53294;47.912;13.526;2022-12-07T10:11:57;8.93;;;5.10;;
66478;SDS011;53294;47.912;13.526;2022-12-07T10:14:57;12.98;;;7.90;;
66478;SDS011;53294;47.912;13.526;2022-12-07T10:17:40;11.40;;;7.03;;
66478;SDS011;53294;47.912;13.526;2022-12-07T10:25:24;13.18;;;7.80;;
66478;SDS011;53294;47.912;13.526;2022-12-07T10:28:08;12.05;;;7.90;;
66478;SDS011;53294;47.912;13.526;2022-12-07T10:30:52;11.40;;;7.22;;
66478;SDS011;53294;47.912;13.526;2022-12-07T10:35:57;10.48;;;5.97;;
66478;SDS011;53294;47.912;13.526;2022-12-07T10:38:25;9.60;;;6.22;;
66478;SDS011;53294;47.912;13.526;2022-12-07T10:41:03;10.57;;;6.18;;
66478;SDS011;53294;47.912;13.526;2022-12-07T10:43:31;10.10;;;6.10;;
66478;SDS011;53294;47.912;13.526;2022-12-07T10:51:14;9.80;;;5.25;;
66478;SDS011;53294;47.912;13.526;2022-12-07T11:04:36;8.15;;;4.95;;
66478;SDS011;53294;47.912;13.526;2022-12-07T11:07:11;8.43;;;4.43;;
66478;SDS011;53294;47.912;13.526;2022-12-07T11:15:26;7.22;;;3.60;;
66478;SDS011;53294;47.912;13.526;2022-12-07T11:37:55;5.57;;;3.30;;
66478;SDS011;53294;47.912;13.526;2022-12-07T11:40:29;5.22;;;2.95;;
66478;SDS011;53294;47.912;13.526;2022-12-07T11:45:41;4.80;;;2.72;;
66478;SDS011;53294;47.912;13.526;2022-12-07T11:48:25;4.70;;;2.80;;
66478;SDS011;53294;47.912;13.526;2022-12-07T11:50:59;6.10;;;3.47;;
66478;SDS011;53294;47.912;13.526;2022-12-07T11:56:17;4.75;;;3.00;;
66478;SDS011;53294;47.912;13.526;2022-12-07T12:01:44;5.63;;;3.22;;
66478;SDS011;53294;47.912;13.526;2022-12-07T12:04:30;5.35;;;3.03;;
66478;SDS011;53294;47.912;13.526;2022-12-07T12:07:25;6.55;;;3.22;;
66478;SDS011;53294;47.912;13.526;2022-12-07T12:12:54;5.28;;;2.90;;
66478;SDS011;53294;47.912;13.526;2022-12-07T12:21:35;5.40;;;3.35;;
66478;SDS011;53294;47.912;13.526;2022-12-07T12:24:04;5.97;;;3.45;;
66478;SDS011;53294;47.912;13.526;2022-12-07T12:26:40;6.60;;;3.55;;
66478;SDS011;53294;47.912;13.526;2022-12-07T12:29:19;6.03;;;3.63;;
66478;SDS011;53294;47.912;13.526;2022-12-07T12:32:15;6.15;;;3.70;;
66478;SDS011;53294;47.912;13.526;2022-12-07T12:37:50;7.80;;;4.05;;
66478;SDS011;53294;47.912;13.526;2022-12-07T12:42:48;5.53;;;3.28;;
66478;SDS011;53294;47.912;13.526;2022-12-07T12:45:26;6.20;;;3.67;;
66478;SDS011;53294;47.912;13.526;2022-12-07T12:47:57;6.25;;;3.40;;
66478;SDS011;53294;47.912;13.526;2022-12-07T12:58:25;4.40;;;2.50;;
66478;SDS011;53294;47.912;13.526;2022-12-07T13:04:00;4.55;;;2.75;;
66478;SDS011;53294;47.912;13.526;2022-12-07T13:08:55;4.10;;;2.50;;
66478;SDS011;53294;47.912;13.526;2022-12-07T13:17:10;5.72;;;2.92;;
66478;SDS011;53294;47.912;13.526;2022-12-07T13:25:20;4.47;;;2.45;;
66478;SDS011;53294;47.912;13.526;2022-12-07T13:27:51;4.60;;;2.75;;
66478;SDS011;53294;47.912;13.526;2022-12-07T13:30:27;5.30;;;2.90;;
66478;SDS011;53294;47.912;13.526;2022-12-07T13:32:57;5.43;;;2.63;;
66478;SDS011;53294;47.912;13.526;2022-12-07T13:38:02;3.80;;;2.50;;
66478;SDS011;53294;47.912;13.526;2022-12-07T13:40:41;3.90;;;2.38;;
66478;SDS011;53294;47.912;13.526;2022-12-07T13:43:14;4.32;;;2.55;;
66478;SDS011;53294;47.912;13.526;2022-12-07T13:45:43;6.57;;;3.00;;
66478;SDS011;53294;47.912;13.526;2022-12-07T13:48:19;3.83;;;2.40;;
66478;SDS011;53294;47.912;13.526;2022-12-07T13:51:26;4.68;;;2.80;;
66478;SDS011;53294;47.912;13.526;2022-12-07T13:53:55;4.82;;;2.63;;
66478;SDS011;53294;47.912;13.526;2022-12-07T13:56:28;5.78;;;3.20;;
66478;SDS011;53294;47.912;13.526;2022-12-07T13:59:00;3.63;;;2.45;;
66478;SDS011;53294;47.912;13.526;2022-12-07T14:01:27;4.20;;;2.60;;
66478;SDS011;53294;47.912;13.526;2022-12-07T14:04:16;3.97;;;2.40;;
66478;SDS011;53294;47.912;13.526;2022-12-07T14:10:03;4.25;;;2.65;;
66478;SDS011;53294;47.912;13.526;2022-12-07T14:12:32;4.55;;;2.63;;
66478;SDS011;53294;47.912;13.526;2022-12-07T14:15:03;5.65;;;2.80;;
66478;SDS011;53294;47.912;13.526;2022-12-07T14:17:30;5.32;;;3.05;;
66478;SDS011;53294;47.912;13.526;2022-12-07T14:19:58;5.22;;;3.42;;
66478;SDS011;53294;47.912;13.526;2022-12-07T14:22:36;5.00;;;2.90;;
66478;SDS011;53294;47.912;13.526;2022-12-07T14:25:25;5.57;;;3.22;;
66478;SDS011;53294;47.912;13.526;2022-12-07T14:28:02;6.10;;;3.20;;
66478;SDS011;53294;47.912;13.526;2022-12-07T14:30:30;5.40;;;3.22;;
66478;SDS011;53294;47.912;13.526;2022-12-07T14:32:59;5.45;;;2.80;;
66478;SDS011;53294;47.912;13.526;2022-12-07T14:35:28;4.88;;;2.67;;
66478;SDS011;53294;47.912;13.526;2022-12-07T14:37:55;5.00;;;3.33;;
66478;SDS011;53294;47.912;13.526;2022-12-07T14:40:23;5.03;;;2.95;;
66478;SDS011;53294;47.912;13.526;2022-12-07T14:42:52;3.83;;;2.88;;
66478;SDS011;53294;47.912;13.526;2022-12-07T14:45:22;5.85;;;3.30;;
66478;SDS011;53294;47.912;13.526;2022-12-07T14:47:49;4.45;;;2.80;;
66478;SDS011;53294;47.912;13.526;2022-12-07T14:50:37;4.95;;;3.30;;
66478;SDS011;53294;47.912;13.526;2022-12-07T14:53:29;3.05;;;2.13;;
66478;SDS011;53294;47.912;13.526;2022-12-07T14:56:00;4.93;;;3.00;;
66478;SDS011;53294;47.912;13.526;2022-12-07T14:58:26;5.43;;;3.30;;
66478;SDS011;53294;47.912;13.526;2022-12-07T15:00:53;5.10;;;2.95;;
66478;SDS011;53294;47.912;13.526;2022-12-07T15:03:19;5.25;;;2.72;;
66478;SDS011;53294;47.912;13.526;2022-12-07T15:05:46;8.57;;;4.80;;
66478;SDS011;53294;47.912;13.526;2022-12-07T15:08:13;7.50;;;4.28;;
66478;SDS011;53294;47.912;13.526;2022-12-07T15:10:40;7.22;;;4.65;;
66478;SDS011;53294;47.912;13.526;2022-12-07T15:13:07;5.95;;;3.22;;
66478;SDS011;53294;47.912;13.526;2022-12-07T15:15:53;4.82;;;3.17;;
66478;SDS011;53294;47.912;13.526;2022-12-07T15:18:21;4.85;;;2.45;;
66478;SDS011;53294;47.912;13.526;2022-12-07T15:20:49;9.32;;;5.43;;
66478;SDS011;53294;47.912;13.526;2022-12-07T15:23:16;6.65;;;3.70;;
66478;SDS011;53294;47.912;13.526;2022-12-07T15:25:43;4.40;;;2.63;;
66478;SDS011;53294;47.912;13.526;2022-12-07T15:28:12;5.65;;;3.22;;
66478;SDS011;53294;47.912;13.526;2022-12-07T15:30:40;5.45;;;3.35;;
66478;SDS011;53294;47.912;13.526;2022-12-07T15:33:09;5.93;;;3.80;;
66478;SDS011;53294;47.912;13.526;2022-12-07T15:35:42;6.70;;;3.58;;
66478;SDS011;53294;47.912;13.526;2022-12-07T15:38:11;8.95;;;5.30;;
66478;SDS011;53294;47.912;13.526;2022-12-07T15:40:38;7.78;;;4.70;;
66478;SDS011;53294;47.912;13.526;2022-12-07T15:43:05;9.88;;;4.95;;
66478;SDS011;53294;47.912;13.526;2022-12-07T15:45:51;6.78;;;4.35;;
66478;SDS011;53294;47.912;13.526;2022-12-07T15:48:18;5.85;;;3.10;;
66478;SDS011;53294;47.912;13.526;2022-12-07T15:50:53;7.78;;;4.60;;
66478;SDS011;53294;47.912;13.526;2022-12-07T15:53:28;9.45;;;4.65;;
66478;SDS011;53294;47.912;13.526;2022-12-07T15:55:54;6.32;;;3.72;;
66478;SDS011;53294;47.912;13.526;2022-12-07T15:58:21;6.43;;;4.05;;
66478;SDS011;53294;47.912;13.526;2022-12-07T16:00:47;6.00;;;3.75;;
66478;SDS011;53294;47.912;13.526;2022-12-07T16:03:14;7.10;;;3.92;;
66478;SDS011;53294;47.912;13.526;2022-12-07T16:05:41;7.32;;;3.95;;
66478;SDS011;53294;47.912;13.526;2022-12-07T16:08:07;9.18;;;5.78;;
66478;SDS011;53294;47.912;13.526;2022-12-07T16:10:34;8.52;;;5.40;;
66478;SDS011;53294;47.912;13.526;2022-12-07T16:13:01;14.18;;;8.65;;
66478;SDS011;53294;47.912;13.526;2022-12-07T16:15:27;6.63;;;4.10;;
66478;SDS011;53294;47.912;13.526;2022-12-07T16:17:54;5.25;;;2.90;;
66478;SDS011;53294;47.912;13.526;2022-12-07T16:20:21;5.55;;;3.17;;
66478;SDS011;53294;47.912;13.526;2022-12-07T16:22:50;6.03;;;3.15;;
66478;SDS011;53294;47.912;13.526;2022-12-07T16:25:18;4.55;;;2.80;;
66478;SDS011;53294;47.912;13.526;2022-12-07T16:27:45;4.43;;;2.80;;
66478;SDS011;53294;47.912;13.526;2022-12-07T16:30:12;4.88;;;2.75;;
66478;SDS011;53294;47.912;13.526;2022-12-07T16:32:40;4.00;;;2.63;;
66478;SDS011;53294;47.912;13.526;2022-12-07T16:35:06;5.47;;;2.97;;
66478;SDS011;53294;47.912;13.526;2022-12-07T16:37:33;8.18;;;4.38;;
66478;SDS011;53294;47.912;13.526;2022-12-07T16:40:00;7.38;;;4.78;;
66478;SDS011;53294;47.912;13.526;2022-12-07T16:42:30;7.20;;;4.82;;
66478;SDS011;53294;47.912;13.526;2022-12-07T16:44:58;7.32;;;4.28;;
66478;SDS011;53294;47.912;13.526;2022-12-07T16:47:25;8.38;;;5.05;;
66478;SDS011;53294;47.912;13.526;2022-12-07T16:49:52;8.80;;;5.10;;
66478;SDS011;53294;47.912;13.526;2022-12-07T16:52:19;8.30;;;5.00;;
66478;SDS011;53294;47.912;13.526;2022-12-07T16:54:47;6.05;;;3.53;;
66478;SDS011;53294;47.912;13.526;2022-12-07T16:57:15;6.00;;;3.50;;
66478;SDS011;53294;47.912;13.526;2022-12-07T16:59:48;4.85;;;3.00;;
66478;SDS011;53294;47.912;13.526;2022-12-07T17:02:15;6.22;;;3.38;;